sensor_id;sensor_type;location;lat;lon;timestamp;temperature;humidity
298;DHT22;133;49.626;9.680;2024-03-02T00:01:10;6.80;97.10
298;DHT22;133;49.626;9.680;2024-03-02T00:03:39;6.80;97.70
298;DHT22;133;49.626;9.680;2024-03-02T00:06:06;6.80;97.40
298;DHT22;133;49.626;9.680;2024-03-02T00:08:32;6.80;97.40
298;DHT22;133;49.626;9.680;2024-03-02T00:10:59;6.60;97.20
298;DHT22;133;49.626;9.680;2024-03-02T00:13:25;6.60;97.60
298;DHT22;133;49.626;9.680;2024-03-02T00:15:55;6.60;96.90
298;DHT22;133;49.626;9.680;2024-03-02T00:18:30;6.60;96.90
298;DHT22;133;49.626;9.680;2024-03-02T00:20:57;6.60;96.60
298;DHT22;133;49.626;9.680;2024-03-02T00:23:23;6.50;96.00
298;DHT22;133;49.626;9.680;2024-03-02T00:25:51;6.20;97.10
298;DHT22;133;49.626;9.680;2024-03-02T00:28:25;6.20;97.90
298;DHT22;133;49.626;9.680;2024-03-02T00:33:21;6.40;97.20
298;DHT22;133;49.626;9.680;2024-03-02T00:35:49;6.30;96.80
298;DHT22;133;49.626;9.680;2024-03-02T00:38:15;6.40;96.90
298;DHT22;133;49.626;9.680;2024-03-02T00:40:41;6.40;96.90
298;DHT22;133;49.626;9.680;2024-03-02T00:45:58;6.40;97.10
298;DHT22;133;49.626;9.680;2024-03-02T00:48:24;6.40;96.70
298;DHT22;133;49.626;9.680;2024-03-02T00:50:53;6.40;96.60
298;DHT22;133;49.626;9.680;2024-03-02T00:53:22;6.40;96.70
298;DHT22;133;49.626;9.680;2024-03-02T00:55:50;6.50;96.70
298;DHT22;133;49.626;9.680;2024-03-02T00:58:15;6.50;96.70
298;DHT22;133;49.626;9.680;2024-03-02T01:00:42;6.60;96.80
298;DHT22;133;49.626;9.680;2024-03-02T01:03:08;6.60;96.60
298;DHT22;133;49.626;9.680;2024-03-02T01:05:34;6.60;96.70
298;DHT22;133;49.626;9.680;2024-03-02T01:08:00;6.70;96.60
298;DHT22;133;49.626;9.680;2024-03-02T01:10:25;6.70;96.60
298;DHT22;133;49.626;9.680;2024-03-02T01:12:51;6.70;96.20
298;DHT22;133;49.626;9.680;2024-03-02T01:15:17;6.70;96.10
298;DHT22;133;49.626;9.680;2024-03-02T01:17:43;6.70;95.90
298;DHT22;133;49.626;9.680;2024-03-02T01:20:09;6.50;95.90
298;DHT22;133;49.626;9.680;2024-03-02T01:22:35;6.50;96.00
298;DHT22;133;49.626;9.680;2024-03-02T01:25:01;6.40;96.90
298;DHT22;133;49.626;9.680;2024-03-02T01:27:27;6.40;97.10
298;DHT22;133;49.626;9.680;2024-03-02T01:29:53;6.40;97.10
298;DHT22;133;49.626;9.680;2024-03-02T01:32:20;6.50;97.30
298;DHT22;133;49.626;9.680;2024-03-02T01:34:45;6.50;97.10
298;DHT22;133;49.626;9.680;2024-03-02T01:37:11;6.50;97.20
298;DHT22;133;49.626;9.680;2024-03-02T01:39:37;6.60;97.10
298;DHT22;133;49.626;9.680;2024-03-02T01:42:02;6.60;97.00
298;DHT22;133;49.626;9.680;2024-03-02T01:44:28;6.50;96.80
298;DHT22;133;49.626;9.680;2024-03-02T01:46:53;6.50;96.80
298;DHT22;133;49.626;9.680;2024-03-02T01:49:19;6.60;96.80
298;DHT22;133;49.626;9.680;2024-03-02T01:51:45;6.50;97.00
298;DHT22;133;49.626;9.680;2024-03-02T01:54:11;6.60;96.80
298;DHT22;133;49.626;9.680;2024-03-02T01:56:37;6.50;96.90
298;DHT22;133;49.626;9.680;2024-03-02T01:59:02;6.40;97.20
298;DHT22;133;49.626;9.680;2024-03-02T02:01:28;6.40;97.50
298;DHT22;133;49.626;9.680;2024-03-02T02:03:54;6.30;97.50
298;DHT22;133;49.626;9.680;2024-03-02T02:06:21;6.40;97.70
298;DHT22;133;49.626;9.680;2024-03-02T02:08:47;6.40;97.30
298;DHT22;133;49.626;9.680;2024-03-02T02:11:16;6.30;97.30
298;DHT22;133;49.626;9.680;2024-03-02T02:13:41;6.30;97.40
298;DHT22;133;49.626;9.680;2024-03-02T02:16:08;6.30;97.40
298;DHT22;133;49.626;9.680;2024-03-02T02:18:34;6.20;97.60
298;DHT22;133;49.626;9.680;2024-03-02T02:21:01;6.20;97.50
298;DHT22;133;49.626;9.680;2024-03-02T02:23:27;6.20;97.30
298;DHT22;133;49.626;9.680;2024-03-02T02:25:53;6.10;97.20
298;DHT22;133;49.626;9.680;2024-03-02T02:28:20;6.00;97.10
298;DHT22;133;49.626;9.680;2024-03-02T02:30:45;6.00;97.30
298;DHT22;133;49.626;9.680;2024-03-02T02:33:11;5.90;97.30
298;DHT22;133;49.626;9.680;2024-03-02T02:35:37;5.90;97.40
298;DHT22;133;49.626;9.680;2024-03-02T02:38:03;6.00;97.30
298;DHT22;133;49.626;9.680;2024-03-02T02:40:29;5.90;97.00
298;DHT22;133;49.626;9.680;2024-03-02T02:42:56;5.80;97.00
298;DHT22;133;49.626;9.680;2024-03-02T02:45:22;5.80;97.00
298;DHT22;133;49.626;9.680;2024-03-02T02:47:48;5.80;97.30
298;DHT22;133;49.626;9.680;2024-03-02T02:50:14;5.80;97.20
298;DHT22;133;49.626;9.680;2024-03-02T02:52:40;5.80;97.10
298;DHT22;133;49.626;9.680;2024-03-02T02:55:10;5.80;97.40
298;DHT22;133;49.626;9.680;2024-03-02T02:57:37;5.70;97.40
298;DHT22;133;49.626;9.680;2024-03-02T03:00:08;5.60;97.50
298;DHT22;133;49.626;9.680;2024-03-02T03:02:43;5.60;97.70
298;DHT22;133;49.626;9.680;2024-03-02T03:05:10;5.60;97.70
298;DHT22;133;49.626;9.680;2024-03-02T03:07:36;5.60;97.60
298;DHT22;133;49.626;9.680;2024-03-02T03:10:03;5.60;97.60
298;DHT22;133;49.626;9.680;2024-03-02T03:12:30;5.50;97.10
298;DHT22;133;49.626;9.680;2024-03-02T03:14:56;5.40;96.70
298;DHT22;133;49.626;9.680;2024-03-02T03:17:22;5.40;96.90
298;DHT22;133;49.626;9.680;2024-03-02T03:19:49;5.20;97.30
298;DHT22;133;49.626;9.680;2024-03-02T03:22:14;5.20;97.60
298;DHT22;133;49.626;9.680;2024-03-02T03:24:40;5.20;97.60
298;DHT22;133;49.626;9.680;2024-03-02T03:27:06;5.20;97.30
298;DHT22;133;49.626;9.680;2024-03-02T03:29:32;5.20;97.30
298;DHT22;133;49.626;9.680;2024-03-02T03:31:58;5.10;97.70
298;DHT22;133;49.626;9.680;2024-03-02T03:34:23;5.20;98.00
298;DHT22;133;49.626;9.680;2024-03-02T03:36:49;5.20;98.20
298;DHT22;133;49.626;9.680;2024-03-02T03:39:14;5.10;98.20
298;DHT22;133;49.626;9.680;2024-03-02T03:41:43;5.10;98.20
298;DHT22;133;49.626;9.680;2024-03-02T03:44:08;5.10;98.50
298;DHT22;133;49.626;9.680;2024-03-02T03:46:34;5.00;98.70
298;DHT22;133;49.626;9.680;2024-03-02T03:49:00;5.10;98.70
298;DHT22;133;49.626;9.680;2024-03-02T03:51:26;5.10;98.40
298;DHT22;133;49.626;9.680;2024-03-02T03:53:51;5.00;98.00
298;DHT22;133;49.626;9.680;2024-03-02T03:56:17;5.00;97.90
298;DHT22;133;49.626;9.680;2024-03-02T03:58:42;5.00;97.40
298;DHT22;133;49.626;9.680;2024-03-02T04:01:08;4.90;97.40
298;DHT22;133;49.626;9.680;2024-03-02T04:03:33;5.00;97.50
298;DHT22;133;49.626;9.680;2024-03-02T04:05:59;5.00;97.40
298;DHT22;133;49.626;9.680;2024-03-02T04:08:25;4.90;97.60
298;DHT22;133;49.626;9.680;2024-03-02T04:10:50;4.80;97.90
298;DHT22;133;49.626;9.680;2024-03-02T04:13:16;4.70;97.90
298;DHT22;133;49.626;9.680;2024-03-02T04:15:41;4.70;98.20
298;DHT22;133;49.626;9.680;2024-03-02T04:18:07;4.70;98.30
298;DHT22;133;49.626;9.680;2024-03-02T04:20:33;4.70;98.40
298;DHT22;133;49.626;9.680;2024-03-02T04:22:58;4.70;98.50
298;DHT22;133;49.626;9.680;2024-03-02T04:25:24;4.70;98.60
298;DHT22;133;49.626;9.680;2024-03-02T04:27:50;4.70;98.70
298;DHT22;133;49.626;9.680;2024-03-02T04:30:15;4.70;98.70
298;DHT22;133;49.626;9.680;2024-03-02T04:32:41;4.70;98.70
298;DHT22;133;49.626;9.680;2024-03-02T04:35:07;4.60;98.70
298;DHT22;133;49.626;9.680;2024-03-02T04:37:34;4.50;98.70
298;DHT22;133;49.626;9.680;2024-03-02T04:40:00;4.50;98.70
298;DHT22;133;49.626;9.680;2024-03-02T04:42:26;4.40;98.70
298;DHT22;133;49.626;9.680;2024-03-02T04:44:51;4.40;98.70
298;DHT22;133;49.626;9.680;2024-03-02T04:47:17;4.40;98.60
298;DHT22;133;49.626;9.680;2024-03-02T04:49:42;4.30;98.60
298;DHT22;133;49.626;9.680;2024-03-02T04:52:08;4.10;98.70
298;DHT22;133;49.626;9.680;2024-03-02T04:54:34;4.10;98.70
298;DHT22;133;49.626;9.680;2024-03-02T04:57:20;4.20;98.70
298;DHT22;133;49.626;9.680;2024-03-02T04:59:45;4.10;98.70
298;DHT22;133;49.626;9.680;2024-03-02T05:02:11;4.10;98.70
298;DHT22;133;49.626;9.680;2024-03-02T05:04:39;4.00;98.70
298;DHT22;133;49.626;9.680;2024-03-02T05:07:05;4.00;98.70
298;DHT22;133;49.626;9.680;2024-03-02T05:09:31;4.00;98.70
298;DHT22;133;49.626;9.680;2024-03-02T05:11:56;3.90;98.70
298;DHT22;133;49.626;9.680;2024-03-02T05:14:40;3.90;98.70
298;DHT22;133;49.626;9.680;2024-03-02T05:17:06;3.80;98.70
298;DHT22;133;49.626;9.680;2024-03-02T05:19:32;3.80;98.70
298;DHT22;133;49.626;9.680;2024-03-02T05:21:57;3.80;98.70
298;DHT22;133;49.626;9.680;2024-03-02T05:24:23;3.90;98.70
298;DHT22;133;49.626;9.680;2024-03-02T05:26:49;3.80;98.70
298;DHT22;133;49.626;9.680;2024-03-02T05:29:14;3.80;98.70
298;DHT22;133;49.626;9.680;2024-03-02T05:31:40;3.80;98.70
298;DHT22;133;49.626;9.680;2024-03-02T05:34:06;3.80;98.70
298;DHT22;133;49.626;9.680;2024-03-02T05:36:31;3.80;98.70
298;DHT22;133;49.626;9.680;2024-03-02T05:38:57;3.80;98.70
298;DHT22;133;49.626;9.680;2024-03-02T05:41:23;3.90;98.70
298;DHT22;133;49.626;9.680;2024-03-02T05:43:48;3.90;98.70
298;DHT22;133;49.626;9.680;2024-03-02T05:46:15;3.90;98.70
298;DHT22;133;49.626;9.680;2024-03-02T05:48:40;3.80;98.70
298;DHT22;133;49.626;9.680;2024-03-02T05:51:06;3.90;98.70
298;DHT22;133;49.626;9.680;2024-03-02T05:53:32;4.00;98.70
298;DHT22;133;49.626;9.680;2024-03-02T05:55:57;3.90;98.70
298;DHT22;133;49.626;9.680;2024-03-02T05:58:23;3.80;98.70
298;DHT22;133;49.626;9.680;2024-03-02T06:01:07;3.60;98.70
298;DHT22;133;49.626;9.680;2024-03-02T06:03:32;3.30;98.70
298;DHT22;133;49.626;9.680;2024-03-02T06:05:58;3.20;98.70
298;DHT22;133;49.626;9.680;2024-03-02T06:08:25;3.20;98.70
298;DHT22;133;49.626;9.680;2024-03-02T06:10:50;3.30;98.70
298;DHT22;133;49.626;9.680;2024-03-02T06:13:16;3.40;98.70
298;DHT22;133;49.626;9.680;2024-03-02T06:15:42;3.50;98.70
298;DHT22;133;49.626;9.680;2024-03-02T06:18:08;3.60;98.70
298;DHT22;133;49.626;9.680;2024-03-02T06:20:33;3.70;98.70
298;DHT22;133;49.626;9.680;2024-03-02T06:22:59;3.70;98.70
298;DHT22;133;49.626;9.680;2024-03-02T06:25:25;3.80;98.70
298;DHT22;133;49.626;9.680;2024-03-02T06:27:50;3.80;98.70
298;DHT22;133;49.626;9.680;2024-03-02T06:30:16;3.90;98.70
298;DHT22;133;49.626;9.680;2024-03-02T06:32:42;3.80;98.70
298;DHT22;133;49.626;9.680;2024-03-02T06:35:07;3.90;98.70
298;DHT22;133;49.626;9.680;2024-03-02T06:37:38;4.00;98.70
298;DHT22;133;49.626;9.680;2024-03-02T06:40:06;4.00;98.70
298;DHT22;133;49.626;9.680;2024-03-02T06:42:35;3.90;98.70
298;DHT22;133;49.626;9.680;2024-03-02T06:45:02;3.80;98.70
298;DHT22;133;49.626;9.680;2024-03-02T06:47:28;3.90;98.70
298;DHT22;133;49.626;9.680;2024-03-02T06:49:53;3.90;98.70
298;DHT22;133;49.626;9.680;2024-03-02T06:52:19;3.90;98.70
298;DHT22;133;49.626;9.680;2024-03-02T06:54:45;4.10;98.70
298;DHT22;133;49.626;9.680;2024-03-02T06:57:12;4.20;98.70
298;DHT22;133;49.626;9.680;2024-03-02T06:59:37;4.20;98.70
298;DHT22;133;49.626;9.680;2024-03-02T07:02:03;4.20;98.60
298;DHT22;133;49.626;9.680;2024-03-02T07:04:29;4.20;98.60
298;DHT22;133;49.626;9.680;2024-03-02T07:06:54;4.30;98.60
298;DHT22;133;49.626;9.680;2024-03-02T07:09:20;4.40;98.70
298;DHT22;133;49.626;9.680;2024-03-02T07:11:48;4.50;98.60
298;DHT22;133;49.626;9.680;2024-03-02T07:14:14;4.60;98.30
298;DHT22;133;49.626;9.680;2024-03-02T07:16:40;4.60;98.00
298;DHT22;133;49.626;9.680;2024-03-02T07:19:06;4.70;98.10
298;DHT22;133;49.626;9.680;2024-03-02T07:21:32;4.80;97.80
298;DHT22;133;49.626;9.680;2024-03-02T07:23:58;4.80;97.60
298;DHT22;133;49.626;9.680;2024-03-02T07:26:25;4.80;97.90
298;DHT22;133;49.626;9.680;2024-03-02T07:28:51;4.90;97.60
298;DHT22;133;49.626;9.680;2024-03-02T07:31:17;5.00;97.50
298;DHT22;133;49.626;9.680;2024-03-02T07:33:45;5.00;97.40
298;DHT22;133;49.626;9.680;2024-03-02T07:36:14;5.00;97.30
298;DHT22;133;49.626;9.680;2024-03-02T07:38:40;5.20;97.40
298;DHT22;133;49.626;9.680;2024-03-02T07:41:07;5.20;97.30
298;DHT22;133;49.626;9.680;2024-03-02T07:43:33;5.30;97.10
298;DHT22;133;49.626;9.680;2024-03-02T07:45:59;5.40;96.90
298;DHT22;133;49.626;9.680;2024-03-02T07:48:25;5.50;96.40
298;DHT22;133;49.626;9.680;2024-03-02T07:50:51;5.50;96.10
298;DHT22;133;49.626;9.680;2024-03-02T07:53:16;5.30;95.90
298;DHT22;133;49.626;9.680;2024-03-02T07:55:42;5.30;96.90
298;DHT22;133;49.626;9.680;2024-03-02T07:58:08;5.30;96.60
298;DHT22;133;49.626;9.680;2024-03-02T08:00:34;5.40;96.40
298;DHT22;133;49.626;9.680;2024-03-02T08:03:00;5.50;96.50
298;DHT22;133;49.626;9.680;2024-03-02T08:05:26;5.60;96.50
298;DHT22;133;49.626;9.680;2024-03-02T08:07:52;5.60;96.70
298;DHT22;133;49.626;9.680;2024-03-02T08:10:18;5.60;96.60
298;DHT22;133;49.626;9.680;2024-03-02T08:12:44;5.70;96.70
298;DHT22;133;49.626;9.680;2024-03-02T08:15:10;5.80;96.50
298;DHT22;133;49.626;9.680;2024-03-02T08:17:35;5.90;96.20
298;DHT22;133;49.626;9.680;2024-03-02T08:20:01;5.90;95.60
298;DHT22;133;49.626;9.680;2024-03-02T08:22:27;6.00;95.70
298;DHT22;133;49.626;9.680;2024-03-02T08:24:53;6.10;96.00
298;DHT22;133;49.626;9.680;2024-03-02T08:27:20;6.10;95.90
298;DHT22;133;49.626;9.680;2024-03-02T08:29:45;6.00;96.20
298;DHT22;133;49.626;9.680;2024-03-02T08:32:11;6.10;96.20
298;DHT22;133;49.626;9.680;2024-03-02T08:34:37;6.20;95.80
298;DHT22;133;49.626;9.680;2024-03-02T08:37:02;6.30;95.60
298;DHT22;133;49.626;9.680;2024-03-02T08:39:28;6.30;95.50
298;DHT22;133;49.626;9.680;2024-03-02T08:41:54;6.40;95.50
298;DHT22;133;49.626;9.680;2024-03-02T08:44:20;6.40;95.40
298;DHT22;133;49.626;9.680;2024-03-02T08:46:46;6.40;96.10
298;DHT22;133;49.626;9.680;2024-03-02T08:49:12;6.50;96.20
298;DHT22;133;49.626;9.680;2024-03-02T08:51:38;6.50;95.90
298;DHT22;133;49.626;9.680;2024-03-02T08:54:04;6.60;95.90
298;DHT22;133;49.626;9.680;2024-03-02T08:56:30;6.70;95.70
298;DHT22;133;49.626;9.680;2024-03-02T08:58:56;6.80;95.40
298;DHT22;133;49.626;9.680;2024-03-02T09:01:22;6.90;94.90
298;DHT22;133;49.626;9.680;2024-03-02T09:03:48;6.80;94.70
298;DHT22;133;49.626;9.680;2024-03-02T09:06:17;6.90;94.50
298;DHT22;133;49.626;9.680;2024-03-02T09:08:43;7.00;94.60
298;DHT22;133;49.626;9.680;2024-03-02T09:11:10;7.00;94.80
298;DHT22;133;49.626;9.680;2024-03-02T09:13:36;7.10;95.00
298;DHT22;133;49.626;9.680;2024-03-02T09:16:03;7.10;94.90
298;DHT22;133;49.626;9.680;2024-03-02T09:18:29;7.30;94.90
298;DHT22;133;49.626;9.680;2024-03-02T09:20:55;7.40;94.80
298;DHT22;133;49.626;9.680;2024-03-02T09:23:21;7.50;94.70
298;DHT22;133;49.626;9.680;2024-03-02T09:25:46;7.70;94.80
298;DHT22;133;49.626;9.680;2024-03-02T09:28:12;7.50;93.80
298;DHT22;133;49.626;9.680;2024-03-02T09:30:38;7.60;94.00
298;DHT22;133;49.626;9.680;2024-03-02T09:33:04;7.70;94.30
298;DHT22;133;49.626;9.680;2024-03-02T09:35:29;7.80;94.20
298;DHT22;133;49.626;9.680;2024-03-02T09:37:55;8.00;94.60
298;DHT22;133;49.626;9.680;2024-03-02T09:40:22;8.10;94.30
298;DHT22;133;49.626;9.680;2024-03-02T09:42:48;8.20;93.80
298;DHT22;133;49.626;9.680;2024-03-02T09:45:23;8.20;92.50
298;DHT22;133;49.626;9.680;2024-03-02T09:47:49;8.20;92.90
298;DHT22;133;49.626;9.680;2024-03-02T09:50:15;8.20;93.40
298;DHT22;133;49.626;9.680;2024-03-02T09:52:42;8.10;94.30
298;DHT22;133;49.626;9.680;2024-03-02T09:55:08;8.30;94.60
298;DHT22;133;49.626;9.680;2024-03-02T09:57:34;8.60;94.00
298;DHT22;133;49.626;9.680;2024-03-02T10:00:00;8.70;93.60
298;DHT22;133;49.626;9.680;2024-03-02T10:02:26;8.90;93.40
298;DHT22;133;49.626;9.680;2024-03-02T10:04:52;9.10;92.80
298;DHT22;133;49.626;9.680;2024-03-02T10:07:18;9.30;92.50
298;DHT22;133;49.626;9.680;2024-03-02T10:09:46;9.40;92.20
298;DHT22;133;49.626;9.680;2024-03-02T10:12:14;9.60;91.80
298;DHT22;133;49.626;9.680;2024-03-02T10:14:40;9.70;91.40
298;DHT22;133;49.626;9.680;2024-03-02T10:17:08;9.90;90.60
298;DHT22;133;49.626;9.680;2024-03-02T10:19:34;10.00;89.90
298;DHT22;133;49.626;9.680;2024-03-02T10:22:01;9.90;89.60
298;DHT22;133;49.626;9.680;2024-03-02T10:24:40;9.90;90.40
298;DHT22;133;49.626;9.680;2024-03-02T10:27:22;10.10;90.50
298;DHT22;133;49.626;9.680;2024-03-02T10:29:48;10.20;90.10
298;DHT22;133;49.626;9.680;2024-03-02T10:32:14;10.40;89.90
298;DHT22;133;49.626;9.680;2024-03-02T10:34:41;10.60;89.60
298;DHT22;133;49.626;9.680;2024-03-02T10:37:08;10.70;89.30
298;DHT22;133;49.626;9.680;2024-03-02T10:39:37;10.90;89.00
298;DHT22;133;49.626;9.680;2024-03-02T10:42:06;11.10;88.40
298;DHT22;133;49.626;9.680;2024-03-02T10:44:33;11.10;88.10
298;DHT22;133;49.626;9.680;2024-03-02T10:47:03;11.10;88.40
298;DHT22;133;49.626;9.680;2024-03-02T10:49:30;11.20;88.00
298;DHT22;133;49.626;9.680;2024-03-02T10:51:57;11.20;88.20
298;DHT22;133;49.626;9.680;2024-03-02T10:54:23;11.40;88.00
298;DHT22;133;49.626;9.680;2024-03-02T10:56:53;11.30;87.10
298;DHT22;133;49.626;9.680;2024-03-02T11:01:56;10.90;88.60
298;DHT22;133;49.626;9.680;2024-03-02T11:04:25;11.00;89.00
298;DHT22;133;49.626;9.680;2024-03-02T11:06:52;11.10;88.60
298;DHT22;133;49.626;9.680;2024-03-02T11:09:22;11.20;88.20
298;DHT22;133;49.626;9.680;2024-03-02T11:12:12;11.30;87.50
298;DHT22;133;49.626;9.680;2024-03-02T11:14:41;11.30;87.80
298;DHT22;133;49.626;9.680;2024-03-02T11:17:11;11.40;87.50
298;DHT22;133;49.626;9.680;2024-03-02T11:19:39;11.50;87.50
298;DHT22;133;49.626;9.680;2024-03-02T11:22:06;11.60;87.00
298;DHT22;133;49.626;9.680;2024-03-02T11:24:32;11.70;86.10
298;DHT22;133;49.626;9.680;2024-03-02T11:27:02;11.80;86.10
298;DHT22;133;49.626;9.680;2024-03-02T11:32:05;12.60;84.40
298;DHT22;133;49.626;9.680;2024-03-02T11:34:32;13.50;81.40
298;DHT22;133;49.626;9.680;2024-03-02T11:37:00;14.90;76.80
298;DHT22;133;49.626;9.680;2024-03-02T11:39:29;16.20;72.60
298;DHT22;133;49.626;9.680;2024-03-02T11:41:58;17.50;68.90
298;DHT22;133;49.626;9.680;2024-03-02T11:44:27;18.50;66.40
298;DHT22;133;49.626;9.680;2024-03-02T11:47:00;19.60;65.10
298;DHT22;133;49.626;9.680;2024-03-02T11:49:53;20.40;60.80
298;DHT22;133;49.626;9.680;2024-03-02T11:52:20;21.10;59.70
298;DHT22;133;49.626;9.680;2024-03-02T11:54:48;22.20;57.60
298;DHT22;133;49.626;9.680;2024-03-02T11:57:21;23.00;55.00
298;DHT22;133;49.626;9.680;2024-03-02T11:59:49;23.60;53.50
298;DHT22;133;49.626;9.680;2024-03-02T12:02:17;23.60;52.70
298;DHT22;133;49.626;9.680;2024-03-02T12:04:44;24.20;51.70
298;DHT22;133;49.626;9.680;2024-03-02T12:07:11;24.30;51.00
298;DHT22;133;49.626;9.680;2024-03-02T12:09:37;24.70;50.00
298;DHT22;133;49.626;9.680;2024-03-02T12:12:03;24.60;49.20
298;DHT22;133;49.626;9.680;2024-03-02T12:14:30;24.50;48.80
298;DHT22;133;49.626;9.680;2024-03-02T12:16:55;24.70;49.10
298;DHT22;133;49.626;9.680;2024-03-02T12:19:24;25.00;48.60
298;DHT22;133;49.626;9.680;2024-03-02T12:21:50;24.90;48.10
298;DHT22;133;49.626;9.680;2024-03-02T12:24:15;25.10;48.10
298;DHT22;133;49.626;9.680;2024-03-02T12:26:42;25.50;47.90
298;DHT22;133;49.626;9.680;2024-03-02T12:29:08;25.50;46.80
298;DHT22;133;49.626;9.680;2024-03-02T12:31:34;25.00;47.50
298;DHT22;133;49.626;9.680;2024-03-02T12:34:01;24.90;48.70
298;DHT22;133;49.626;9.680;2024-03-02T12:36:27;25.20;48.10
298;DHT22;133;49.626;9.680;2024-03-02T12:38:53;25.50;47.50
298;DHT22;133;49.626;9.680;2024-03-02T12:41:20;25.50;47.30
298;DHT22;133;49.626;9.680;2024-03-02T12:43:46;25.50;46.80
298;DHT22;133;49.626;9.680;2024-03-02T12:46:13;25.20;47.40
298;DHT22;133;49.626;9.680;2024-03-02T12:48:38;25.40;47.80
298;DHT22;133;49.626;9.680;2024-03-02T12:51:07;25.70;46.80
298;DHT22;133;49.626;9.680;2024-03-02T12:53:33;25.50;45.80
298;DHT22;133;49.626;9.680;2024-03-02T12:55:59;25.60;46.20
298;DHT22;133;49.626;9.680;2024-03-02T12:58:24;25.40;47.30
298;DHT22;133;49.626;9.680;2024-03-02T13:01:05;25.30;46.20
298;DHT22;133;49.626;9.680;2024-03-02T13:03:31;25.00;46.20
298;DHT22;133;49.626;9.680;2024-03-02T13:06:00;25.20;49.00
298;DHT22;133;49.626;9.680;2024-03-02T13:08:25;25.20;48.20
298;DHT22;133;49.626;9.680;2024-03-02T13:10:51;25.20;48.50
298;DHT22;133;49.626;9.680;2024-03-02T13:13:17;24.70;50.00
298;DHT22;133;49.626;9.680;2024-03-02T13:15:43;25.10;49.00
298;DHT22;133;49.626;9.680;2024-03-02T13:18:09;25.40;49.00
298;DHT22;133;49.626;9.680;2024-03-02T13:20:35;25.70;46.10
298;DHT22;133;49.626;9.680;2024-03-02T13:23:01;25.80;46.10
298;DHT22;133;49.626;9.680;2024-03-02T13:25:27;25.80;44.40
298;DHT22;133;49.626;9.680;2024-03-02T13:27:52;25.60;43.80
298;DHT22;133;49.626;9.680;2024-03-02T13:30:18;25.40;44.50
298;DHT22;133;49.626;9.680;2024-03-02T13:32:44;25.40;44.20
298;DHT22;133;49.626;9.680;2024-03-02T13:35:09;25.30;45.10
298;DHT22;133;49.626;9.680;2024-03-02T13:37:36;25.30;43.80
298;DHT22;133;49.626;9.680;2024-03-02T13:40:02;25.30;42.90
298;DHT22;133;49.626;9.680;2024-03-02T13:42:30;24.30;40.90
298;DHT22;133;49.626;9.680;2024-03-02T13:44:56;24.10;42.20
298;DHT22;133;49.626;9.680;2024-03-02T13:47:22;24.20;42.90
298;DHT22;133;49.626;9.680;2024-03-02T13:49:47;24.70;43.00
298;DHT22;133;49.626;9.680;2024-03-02T13:52:14;24.80;42.40
298;DHT22;133;49.626;9.680;2024-03-02T13:54:43;24.80;42.20
298;DHT22;133;49.626;9.680;2024-03-02T13:57:09;24.60;42.40
298;DHT22;133;49.626;9.680;2024-03-02T13:59:36;24.30;42.10
298;DHT22;133;49.626;9.680;2024-03-02T14:02:02;24.00;42.30
298;DHT22;133;49.626;9.680;2024-03-02T14:04:35;23.60;43.20
298;DHT22;133;49.626;9.680;2024-03-02T14:07:01;23.60;43.60
298;DHT22;133;49.626;9.680;2024-03-02T14:09:27;23.60;43.80
298;DHT22;133;49.626;9.680;2024-03-02T14:11:54;23.40;44.00
298;DHT22;133;49.626;9.680;2024-03-02T14:14:20;23.10;45.10
298;DHT22;133;49.626;9.680;2024-03-02T14:16:45;23.20;45.30
298;DHT22;133;49.626;9.680;2024-03-02T14:19:12;23.00;44.90
298;DHT22;133;49.626;9.680;2024-03-02T14:21:38;23.00;44.60
298;DHT22;133;49.626;9.680;2024-03-02T14:24:04;23.10;45.60
298;DHT22;133;49.626;9.680;2024-03-02T14:26:30;23.20;45.10
298;DHT22;133;49.626;9.680;2024-03-02T14:28:55;23.10;45.80
298;DHT22;133;49.626;9.680;2024-03-02T14:31:21;23.10;45.70
298;DHT22;133;49.626;9.680;2024-03-02T14:33:47;23.20;46.00
298;DHT22;133;49.626;9.680;2024-03-02T14:36:12;23.00;45.90
298;DHT22;133;49.626;9.680;2024-03-02T14:38:39;22.90;46.50
298;DHT22;133;49.626;9.680;2024-03-02T14:41:04;22.90;47.40
298;DHT22;133;49.626;9.680;2024-03-02T14:43:30;22.90;47.60
298;DHT22;133;49.626;9.680;2024-03-02T14:45:56;22.90;47.10
298;DHT22;133;49.626;9.680;2024-03-02T14:48:24;22.40;48.90
298;DHT22;133;49.626;9.680;2024-03-02T14:50:50;22.10;49.80
298;DHT22;133;49.626;9.680;2024-03-02T14:53:16;22.00;50.30
298;DHT22;133;49.626;9.680;2024-03-02T14:55:42;21.30;51.30
298;DHT22;133;49.626;9.680;2024-03-02T14:58:07;21.20;52.00
298;DHT22;133;49.626;9.680;2024-03-02T15:00:33;21.00;52.00
298;DHT22;133;49.626;9.680;2024-03-02T15:02:59;20.80;52.40
298;DHT22;133;49.626;9.680;2024-03-02T15:05:25;20.70;53.00
298;DHT22;133;49.626;9.680;2024-03-02T15:07:52;20.50;53.70
298;DHT22;133;49.626;9.680;2024-03-02T15:10:17;20.40;53.60
298;DHT22;133;49.626;9.680;2024-03-02T15:12:43;20.20;54.10
298;DHT22;133;49.626;9.680;2024-03-02T15:15:09;20.00;54.30
298;DHT22;133;49.626;9.680;2024-03-02T15:17:37;19.80;54.90
298;DHT22;133;49.626;9.680;2024-03-02T15:20:03;19.70;55.10
298;DHT22;133;49.626;9.680;2024-03-02T15:22:30;19.70;56.00
298;DHT22;133;49.626;9.680;2024-03-02T15:24:55;19.60;56.30
298;DHT22;133;49.626;9.680;2024-03-02T15:27:21;19.30;57.10
298;DHT22;133;49.626;9.680;2024-03-02T15:29:47;19.20;57.10
298;DHT22;133;49.626;9.680;2024-03-02T15:32:15;19.10;57.60
298;DHT22;133;49.626;9.680;2024-03-02T15:34:41;18.90;57.90
298;DHT22;133;49.626;9.680;2024-03-02T15:37:08;18.90;58.10
298;DHT22;133;49.626;9.680;2024-03-02T15:39:34;18.80;58.50
298;DHT22;133;49.626;9.680;2024-03-02T15:41:59;18.70;58.50
298;DHT22;133;49.626;9.680;2024-03-02T15:44:25;18.50;58.00
298;DHT22;133;49.626;9.680;2024-03-02T15:46:51;18.40;57.90
298;DHT22;133;49.626;9.680;2024-03-02T15:49:16;18.30;58.20
298;DHT22;133;49.626;9.680;2024-03-02T15:51:42;18.10;58.30
298;DHT22;133;49.626;9.680;2024-03-02T15:54:10;18.00;58.20
298;DHT22;133;49.626;9.680;2024-03-02T15:56:36;17.90;58.70
298;DHT22;133;49.626;9.680;2024-03-02T15:59:02;17.80;58.80
298;DHT22;133;49.626;9.680;2024-03-02T16:01:29;17.70;59.60
298;DHT22;133;49.626;9.680;2024-03-02T16:03:54;17.50;59.90
298;DHT22;133;49.626;9.680;2024-03-02T16:06:20;17.50;60.10
298;DHT22;133;49.626;9.680;2024-03-02T16:08:46;17.40;60.30
298;DHT22;133;49.626;9.680;2024-03-02T16:11:11;17.30;60.90
298;DHT22;133;49.626;9.680;2024-03-02T16:13:37;17.20;61.80
298;DHT22;133;49.626;9.680;2024-03-02T16:16:03;17.10;62.40
298;DHT22;133;49.626;9.680;2024-03-02T16:18:29;16.90;63.10
298;DHT22;133;49.626;9.680;2024-03-02T16:20:55;16.80;63.90
298;DHT22;133;49.626;9.680;2024-03-02T16:23:20;16.60;64.30
298;DHT22;133;49.626;9.680;2024-03-02T16:25:46;16.60;64.70
298;DHT22;133;49.626;9.680;2024-03-02T16:28:11;16.50;65.00
298;DHT22;133;49.626;9.680;2024-03-02T16:30:37;16.50;65.30
298;DHT22;133;49.626;9.680;2024-03-02T16:33:03;16.40;65.50
298;DHT22;133;49.626;9.680;2024-03-02T16:35:28;16.20;66.00
298;DHT22;133;49.626;9.680;2024-03-02T16:37:54;16.00;66.50
298;DHT22;133;49.626;9.680;2024-03-02T16:40:19;15.90;66.80
298;DHT22;133;49.626;9.680;2024-03-02T16:42:45;15.80;67.10
298;DHT22;133;49.626;9.680;2024-03-02T16:45:11;15.70;67.50
298;DHT22;133;49.626;9.680;2024-03-02T16:47:38;15.60;67.60
298;DHT22;133;49.626;9.680;2024-03-02T16:50:04;15.50;67.60